Time;durP1;ratioP1;P1;durP2;ratioP2;P2;SDS_P1;SDS_P2;PMS_P1;PMS_P2;Temp;Humidity;BMP_temperature;BMP_pressure;BME280_temperature;BME280_humidity;BME280_pressure;Samples;Min_cycle;Max_cycle;Signal;HPM_P1;HPM_P2
2024/03/17 00:00:32;;;;;;;21.15;7.90;;;;;;;;;;4421108;32;20342;-75
2024/03/17 00:02:57;;;;;;;;;;;;;;;;;;4421053;32;20045;-74
2024/03/17 00:05:22;;;;;;;12.88;6.30;;;;;;;;;;4421096;32;20044;-74
2024/03/17 00:07:48;;;;;;;13.27;6.45;;;;;;;;;;4405347;32;20042;-74
2024/03/17 00:10:15;;;;;;;14.93;6.65;;;;;;;;;;4405497;32;20349;-75
2024/03/17 00:12:40;;;;;;;15.82;7.25;;;;;;;;;;4419286;32;20060;-75
2024/03/17 00:15:06;;;;;;;;;;;;;;;;;;4421257;32;20359;-75
2024/03/17 00:17:31;;;;;;;19.23;7.62;;;;;;;;;;4421394;32;19941;-74
2024/03/17 00:19:56;;;;;;;17.98;7.32;;;;;;;;;;4419866;32;20453;-74
2024/03/17 00:22:22;;;;;;;13.35;6.72;;;;;;;;;;4405807;32;20030;-74
2024/03/17 00:24:47;;;;;;;;;;;;;;;;;;4406741;32;20366;-73
2024/03/17 00:27:13;;;;;;;14.55;7.18;;;;;;;;;;4406798;32;19944;-74
2024/03/17 00:29:38;;;;;;;16.60;7.28;;;;;;;;;;4419247;32;20155;-75
2024/03/17 00:32:04;;;;;;;;;;;;;;;;;;4405709;32;20037;-75
2024/03/17 00:34:29;;;;;;;16.27;6.87;;;;;;;;;;4421418;32;19971;-74
2024/03/17 00:36:54;;;;;;;15.43;7.12;;;;;;;;;;4419545;32;20026;-74
2024/03/17 00:39:19;;;;;;;17.12;7.78;;;;;;;;;;4419121;32;20457;-74
2024/03/17 00:41:44;;;;;;;;;;;;;;;;;;4421815;32;20023;-74
2024/03/17 00:44:09;;;;;;;12.90;6.85;;;;;;;;;;4406412;32;19955;-74
2024/03/17 00:46:35;;;;;;;17.65;8.15;;;;;;;;;;4406900;32;20052;-74
2024/03/17 00:49:00;;;;;;;11.52;6.65;;;;;;;;;;4420554;32;20073;-74
2024/03/17 00:51:25;;;;;;;16.05;8.07;;;;;;;;;;4420740;32;20400;-74
2024/03/17 00:53:51;;;;;;;19.92;7.28;;;;;;;;;;4420579;32;20144;-74
2024/03/17 00:56:16;;;;;;;14.25;7.15;;;;;;;;;;4421223;32;20022;-74
2024/03/17 00:58:41;;;;;;;;;;;;;;;;;;4419348;32;20037;-73
2024/03/17 01:01:06;;;;;;;11.85;6.95;;;;;;;;;;4419140;32;19934;-73
2024/03/17 01:03:31;;;;;;;;;;;;;;;;;;4419382;32;20373;-74
2024/03/17 01:05:57;;;;;;;14.93;7.85;;;;;;;;;;4405302;32;20273;-73
2024/03/17 01:08:22;;;;;;;;;;;;;;;;;;4419456;32;20114;-74
2024/03/17 01:10:51;;;;;;;14.30;7.03;;;;;;;;;;4420252;32;20040;-74
2024/03/17 01:13:16;;;;;;;11.05;6.32;;;;;;;;;;4420511;32;20049;-74
2024/03/17 01:15:41;;;;;;;;;;;;;;;;;;4423523;32;20083;-75
2024/03/17 01:18:07;;;;;;;11.75;6.68;;;;;;;;;;4422315;32;19970;-74
2024/03/17 01:20:33;;;;;;;;;;;;;;;;;;4408367;32;20044;-73
2024/03/17 01:22:58;;;;;;;15.60;7.12;;;;;;;;;;4422465;32;19937;-75
2024/03/17 01:25:25;;;;;;;;;;;;;;;;;;4422414;32;20025;-74
2024/03/17 01:27:51;;;;;;;12.23;6.20;;;;;;;;;;4423377;32;20125;-74
2024/03/17 01:30:16;;;;;;;19.87;7.65;;;;;;;;;;4422207;32;20022;-74
2024/03/17 01:32:41;;;;;;;14.20;7.10;;;;;;;;;;4422147;32;20022;-74
2024/03/17 01:35:06;;;;;;;12.75;7.15;;;;;;;;;;4423845;32;20026;-75
2024/03/17 01:37:31;;;;;;;;;;;;;;;;;;4422527;32;20029;-74
2024/03/17 01:39:57;;;;;;;12.70;7.75;;;;;;;;;;4423463;32;19933;-74
2024/03/17 01:42:22;;;;;;;14.70;7.90;;;;;;;;;;4421957;32;20026;-74
2024/03/17 01:44:48;;;;;;;12.68;7.72;;;;;;;;;;4422871;32;20063;-74
2024/03/17 01:47:13;;;;;;;16.05;8.13;;;;;;;;;;4422103;32;20026;-75
2024/03/17 01:49:38;;;;;;;;;;;;;;;;;;4423339;32;20425;-74
2024/03/17 01:52:05;;;;;;;18.40;8.10;;;;;;;;;;4407146;32;19964;-74
2024/03/17 01:54:30;;;;;;;13.68;7.90;;;;;;;;;;4421756;32;20125;-75
2024/03/17 01:56:55;;;;;;;;;;;;;;;;;;4422758;32;20027;-74
2024/03/17 01:59:21;;;;;;;14.00;7.82;;;;;;;;;;4408010;32;19988;-75
2024/03/17 02:01:46;;;;;;;;;;;;;;;;;;4421455;32;20526;-75
2024/03/17 02:04:11;;;;;;;15.32;7.95;;;;;;;;;;4407200;32;19983;-75
2024/03/17 02:06:36;;;;;;;19.45;8.50;;;;;;;;;;4422624;32;20098;-74
2024/03/17 02:09:02;;;;;;;;;;;;;;;;;;4421827;32;20052;-74
2024/03/17 02:11:29;;;;;;;12.35;8.07;;;;;;;;;;4420938;32;19937;-73
2024/03/17 02:13:55;;;;;;;14.87;8.95;;;;;;;;;;4407203;32;20095;-73
2024/03/17 02:16:20;;;;;;;15.27;9.32;;;;;;;;;;4421490;32;20039;-75
2024/03/17 02:18:45;;;;;;;;;;;;;;;;;;4421660;32;20022;-75
2024/03/17 02:21:11;;;;;;;15.85;8.70;;;;;;;;;;4401938;32;20026;-74
2024/03/17 02:23:36;;;;;;;;;;;;;;;;;;4406557;32;20021;-75
2024/03/17 02:26:01;;;;;;;14.77;8.57;;;;;;;;;;4405580;32;20032;-75
2024/03/17 02:28:26;;;;;;;13.38;9.15;;;;;;;;;;4393552;32;20034;-75
2024/03/17 02:30:52;;;;;;;14.07;8.77;;;;;;;;;;4407272;32;20392;-74
2024/03/17 02:33:17;;;;;;;19.73;9.63;;;;;;;;;;4406261;32;20049;-75
2024/03/17 02:35:42;;;;;;;15.73;10.45;;;;;;;;;;4407373;32;20030;-74
2024/03/17 02:38:09;;;;;;;13.40;9.55;;;;;;;;;;4417385;32;20368;-74
2024/03/17 02:40:35;;;;;;;12.85;9.75;;;;;;;;;;4421603;32;20179;-75
2024/03/17 02:43:00;;;;;;;20.35;10.50;;;;;;;;;;4422775;32;20060;-75
2024/03/17 02:45:26;;;;;;;;;;;;;;;;;;4421611;32;20323;-76
2024/03/17 02:47:51;;;;;;;17.85;10.65;;;;;;;;;;4420785;32;19953;-75
2024/03/17 02:50:16;;;;;;;14.93;10.32;;;;;;;;;;4421405;32;20018;-74
2024/03/17 02:52:41;;;;;;;;;;;;;;;;;;4422550;32;20079;-74
2024/03/17 02:55:07;;;;;;;19.83;10.02;;;;;;;;;;4420858;32;19937;-74
2024/03/17 02:57:32;;;;;;;16.52;9.98;;;;;;;;;;4421195;32;20039;-74
2024/03/17 02:59:57;;;;;;;;;;;;;;;;;;4420723;32;20033;-74
2024/03/17 03:02:22;;;;;;;15.85;9.93;;;;;;;;;;4421726;32;19933;-74
2024/03/17 03:04:48;;;;;;;16.08;9.90;;;;;;;;;;4421895;32;20357;-74
2024/03/17 03:07:14;;;;;;;17.02;10.07;;;;;;;;;;4408175;32;20037;-75
2024/03/17 03:09:39;;;;;;;14.27;9.18;;;;;;;;;;4410080;32;20093;-73
2024/03/17 03:12:04;;;;;;;;;;;;;;;;;;4422550;32;20087;-73
2024/03/17 03:14:30;;;;;;;18.15;10.05;;;;;;;;;;4422703;32;19933;-74
2024/03/17 03:16:55;;;;;;;13.25;9.85;;;;;;;;;;4422619;32;20415;-74
2024/03/17 03:19:21;;;;;;;14.85;10.27;;;;;;;;;;4423050;32;20090;-75
2024/03/17 03:21:46;;;;;;;;;;;;;;;;;;4422864;32;20034;-75
2024/03/17 03:24:13;;;;;;;15.85;10.77;;;;;;;;;;4421257;32;20326;-75
2024/03/17 03:26:38;;;;;;;17.27;10.48;;;;;;;;;;4420912;32;20057;-74
2024/03/17 03:29:04;;;;;;;;;;;;;;;;;;4407146;32;20351;-74
2024/03/17 03:31:29;;;;;;;12.80;10.27;;;;;;;;;;4420449;32;20322;-74
2024/03/17 03:33:56;;;;;;;;;;;;;;;;;;4422482;32;20406;-74
2024/03/17 03:36:22;;;;;;;16.87;11.52;;;;;;;;;;4420106;32;19970;-74
2024/03/17 03:38:47;;;;;;;;;;;;;;;;;;4421142;32;20037;-74
2024/03/17 03:41:13;;;;;;;19.52;11.30;;;;;;;;;;4419646;32;19934;-73
2024/03/17 03:43:39;;;;;;;15.18;9.93;;;;;;;;;;4419981;32;20126;-74
2024/03/17 03:46:04;;;;;;;;;;;;;;;;;;4421835;32;20057;-73
2024/03/17 03:48:29;;;;;;;16.83;11.80;;;;;;;;;;4420285;32;20314;-75
2024/03/17 03:50:55;;;;;;;14.25;9.55;;;;;;;;;;4420443;32;20041;-75
2024/03/17 03:53:20;;;;;;;13.02;10.32;;;;;;;;;;4421233;32;20443;-75
2024/03/17 03:55:46;;;;;;;18.12;11.52;;;;;;;;;;4405783;32;20408;-74
2024/03/17 03:58:12;;;;;;;16.80;10.95;;;;;;;;;;4420294;32;20017;-73
2024/03/17 04:00:39;;;;;;;16.98;10.07;;;;;;;;;;4419236;32;20072;-74
2024/03/17 04:03:04;;;;;;;14.57;10.70;;;;;;;;;;4420241;32;20411;-74
2024/03/17 04:05:29;;;;;;;;;;;;;;;;;;4420129;32;20068;-73
2024/03/17 04:07:54;;;;;;;17.75;11.07;;;;;;;;;;4419401;32;20090;-74
2024/03/17 04:10:20;;;;;;;;;;;;;;;;;;4420025;32;20117;-74
2024/03/17 04:12:46;;;;;;;18.02;10.65;;;;;;;;;;4403408;32;19997;-73
2024/03/17 04:15:11;;;;;;;;;;;;;;;;;;4405191;32;20427;-75
2024/03/17 04:17:37;;;;;;;17.35;12.65;;;;;;;;;;4404796;32;19975;-73
2024/03/17 04:20:03;;;;;;;18.25;11.30;;;;;;;;;;4404600;32;20207;-72
2024/03/17 04:22:28;;;;;;;;;;;;;;;;;;4403968;32;20421;-74
2024/03/17 04:24:53;;;;;;;22.20;11.15;;;;;;;;;;4402661;32;20262;-74
2024/03/17 04:27:19;;;;;;;18.55;12.02;;;;;;;;;;4404378;32;20114;-74
2024/03/17 04:29:44;;;;;;;;;;;;;;;;;;4405528;32;20461;-74
2024/03/17 04:32:11;;;;;;;19.40;11.40;;;;;;;;;;4402764;32;20345;-74
2024/03/17 04:34:36;;;;;;;14.70;11.18;;;;;;;;;;4403713;32;20015;-74
2024/03/17 04:37:01;;;;;;;;;;;;;;;;;;4404811;32;20049;-73
2024/03/17 04:39:26;;;;;;;17.55;11.25;;;;;;;;;;4402764;32;19940;-74
2024/03/17 04:41:51;;;;;;;16.75;11.73;;;;;;;;;;4404620;32;20057;-74
2024/03/17 04:44:17;;;;;;;20.35;11.73;;;;;;;;;;4404533;32;20088;-74
2024/03/17 04:46:42;;;;;;;19.00;11.23;;;;;;;;;;4403068;32;20030;-75
2024/03/17 04:49:08;;;;;;;18.37;10.95;;;;;;;;;;4403313;32;20477;-75
2024/03/17 04:51:33;;;;;;;15.25;11.57;;;;;;;;;;4406986;32;20053;-74
2024/03/17 04:53:58;;;;;;;;;;;;;;;;;;4402314;32;20034;-75
2024/03/17 04:56:24;;;;;;;15.40;10.25;;;;;;;;;;4393304;32;19938;-74
2024/03/17 04:58:49;;;;;;;14.60;10.98;;;;;;;;;;4390758;32;20031;-74
2024/03/17 05:01:14;;;;;;;;;;;;;;;;;;4391050;32;20053;-74
2024/03/17 05:03:39;;;;;;;14.77;10.30;;;;;;;;;;4390222;32;19942;-74
2024/03/17 05:06:05;;;;;;;14.23;10.35;;;;;;;;;;4391892;32;20443;-75
2024/03/17 05:08:31;;;;;;;16.48;11.23;;;;;;;;;;4391623;32;20141;-74
2024/03/17 05:10:56;;;;;;;;;;;;;;;;;;4391900;32;20147;-75
2024/03/17 05:13:21;;;;;;;15.37;11.03;;;;;;;;;;4390532;32;19997;-75
2024/03/17 05:15:47;;;;;;;;;;;;;;;;;;4392446;32;20092;-74
2024/03/17 05:18:12;;;;;;;14.98;10.75;;;;;;;;;;4392102;32;19972;-74
2024/03/17 05:20:37;;;;;;;;;;;;;;;;;;4392277;32;20200;-74
2024/03/17 05:23:02;;;;;;;16.10;10.45;;;;;;;;;;4391057;32;19934;-75
2024/03/17 05:25:28;;;;;;;20.15;12.07;;;;;;;;;;4390414;32;20026;-75
2024/03/17 05:27:53;;;;;;;;;;;;;;;;;;4390515;32;20106;-73
2024/03/17 05:30:18;;;;;;;16.42;11.40;;;;;;;;;;4389935;32;20228;-74
2024/03/17 05:32:43;;;;;;;15.57;10.75;;;;;;;;;;4391375;32;20027;-74
2024/03/17 05:35:09;;;;;;;;;;;;;;;;;;4391995;32;20031;-74
2024/03/17 05:37:35;;;;;;;16.40;10.60;;;;;;;;;;4391781;32;19930;-74
2024/03/17 05:40:00;;;;;;;;;;;;;;;;;;4391543;32;20105;-74
2024/03/17 05:42:26;;;;;;;13.80;11.00;;;;;;;;;;4391354;32;20375;-74
2024/03/17 05:44:52;;;;;;;16.83;11.45;;;;;;;;;;4390969;32;20127;-74
2024/03/17 05:47:21;;;;;;;17.10;11.43;;;;;;;;;;4390576;32;20022;-74
2024/03/17 05:49:46;;;;;;;17.98;12.23;;;;;;;;;;4389640;32;20019;-74
2024/03/17 05:52:12;;;;;;;;;;;;;;;;;;4392461;32;20023;-74
2024/03/17 05:54:37;;;;;;;18.65;11.43;;;;;;;;;;4392952;32;19983;-75
2024/03/17 05:57:04;;;;;;;20.58;11.90;;;;;;;;;;4390058;32;20100;-74
2024/03/17 05:59:29;;;;;;;18.20;11.57;;;;;;;;;;4389560;32;20026;-73
2024/03/17 06:01:54;;;;;;;;;;;;;;;;;;4389707;32;20371;-74
2024/03/17 06:04:20;;;;;;;16.12;12.23;;;;;;;;;;4390931;32;19956;-73
2024/03/17 06:06:45;;;;;;;;;;;;;;;;;;4390702;32;20053;-73
2024/03/17 06:09:10;;;;;;;14.95;11.60;;;;;;;;;;4391999;32;20327;-73
2024/03/17 06:11:36;;;;;;;19.90;11.80;;;;;;;;;;4388788;32;20100;-73
2024/03/17 06:14:04;;;;;;;19.75;12.80;;;;;;;;;;4391312;32;20141;-74
2024/03/17 06:16:30;;;;;;;17.20;11.93;;;;;;;;;;4390892;32;20053;-74
2024/03/17 06:18:55;;;;;;;19.45;12.20;;;;;;;;;;4391911;32;20035;-73
2024/03/17 06:21:20;;;;;;;;;;;;;;;;;;4390914;32;20555;-73
2024/03/17 06:23:46;;;;;;;15.88;12.13;;;;;;;;;;4389002;32;19954;-74
2024/03/17 06:26:12;;;;;;;25.30;13.80;;;;;;;;;;4390779;32;20069;-74
2024/03/17 06:28:37;;;;;;;16.42;11.52;;;;;;;;;;4389618;32;20447;-74
2024/03/17 06:31:07;;;;;;;;;;;;;;;;;;4391521;32;20023;-74
2024/03/17 06:33:32;;;;;;;18.70;12.45;;;;;;;;;;4390402;32;19986;-75
2024/03/17 06:35:57;;;;;;;;;;;;;;;;;;4390942;32;20026;-73
2024/03/17 06:38:22;;;;;;;17.12;11.65;;;;;;;;;;4391928;32;19945;-74
2024/03/17 06:40:47;;;;;;;;;;;;;;;;;;4389095;32;20519;-74
2024/03/17 06:43:13;;;;;;;24.40;13.07;;;;;;;;;;4391607;32;19934;-73
2024/03/17 06:45:38;;;;;;;;;;;;;;;;;;4389246;32;20172;-74
2024/03/17 06:48:03;;;;;;;17.27;11.40;;;;;;;;;;4388869;32;19942;-74
2024/03/17 06:50:28;;;;;;;21.92;12.25;;;;;;;;;;4390036;32;20103;-75
2024/03/17 06:52:54;;;;;;;17.58;11.63;;;;;;;;;;4390350;32;20429;-75
2024/03/17 06:55:21;;;;;;;;;;;;;;;;;;4391762;32;20360;-74
2024/03/17 06:57:46;;;;;;;17.02;11.57;;;;;;;;;;4391514;32;19956;-74
2024/03/17 07:00:14;;;;;;;;;;;;;;;;;;4389626;32;20023;-74
2024/03/17 07:02:40;;;;;;;;;;;;;;;;;;4390289;32;19938;-74
2024/03/17 07:05:06;;;;;;;19.87;12.15;;;;;;;;;;4389177;32;19940;-73
2024/03/17 07:07:31;;;;;;;15.43;11.85;;;;;;;;;;4389933;32;20074;-74
2024/03/17 07:09:57;;;;;;;;;;;;;;;;;;4388768;32;20052;-74
2024/03/17 07:12:22;;;;;;;17.52;12.45;;;;;;;;;;4399773;32;19934;-74
2024/03/17 07:14:47;;;;;;;;;;;;;;;;;;4405581;32;20018;-74
2024/03/17 07:17:12;;;;;;;21.02;11.93;;;;;;;;;;4404434;32;19985;-76
2024/03/17 07:19:37;;;;;;;;;;;;;;;;;;4406819;32;20585;-75
2024/03/17 07:22:03;;;;;;;15.77;10.98;;;;;;;;;;4406772;32;20318;-74
2024/03/17 07:24:29;;;;;;;21.98;11.88;;;;;;;;;;4405678;32;20031;-74
2024/03/17 07:26:55;;;;;;;17.40;11.95;;;;;;;;;;4405627;32;20815;-74
2024/03/17 07:29:20;;;;;;;;;;;;;;;;;;4405506;32;20212;-75
2024/03/17 07:31:45;;;;;;;14.30;11.32;;;;;;;;;;4406614;32;19981;-74
2024/03/17 07:34:10;;;;;;;21.20;12.48;;;;;;;;;;4405361;32;20274;-75
2024/03/17 07:36:36;;;;;;;;;;;;;;;;;;4403322;32;20026;-74
2024/03/17 07:39:02;;;;;;;16.23;11.20;;;;;;;;;;4404134;32;20318;-75
2024/03/17 07:41:27;;;;;;;14.98;10.32;;;;;;;;;;4404769;32;20023;-75
2024/03/17 07:43:52;;;;;;;;;;;;;;;;;;4404365;32;20022;-74
2024/03/17 07:46:17;;;;;;;17.58;12.27;;;;;;;;;;4404042;32;19952;-74
2024/03/17 07:48:43;;;;;;;14.65;11.88;;;;;;;;;;4404915;32;20048;-74
2024/03/17 07:51:08;;;;;;;;;;;;;;;;;;4403287;32;20014;-74
2024/03/17 07:53:34;;;;;;;15.73;11.27;;;;;;;;;;4404932;32;19951;-74
2024/03/17 07:56:01;;;;;;;13.57;11.52;;;;;;;;;;4403905;32;20111;-75
2024/03/17 07:58:27;;;;;;;16.17;11.85;;;;;;;;;;4404892;32;20062;-75
2024/03/17 08:00:52;;;;;;;;;;;;;;;;;;4403424;32;20022;-74
2024/03/17 08:03:18;;;;;;;16.48;12.10;;;;;;;;;;4403139;32;19944;-75
2024/03/17 08:05:47;;;;;;;15.20;11.15;;;;;;;;;;4402787;32;20018;-74
2024/03/17 08:08:13;;;;;;;16.58;12.27;;;;;;;;;;4404054;32;20057;-74
2024/03/17 08:10:38;;;;;;;;;;;;;;;;;;4404272;32;20023;-74
2024/03/17 08:13:05;;;;;;;15.32;11.12;;;;;;;;;;4411290;32;19963;-74
2024/03/17 08:15:30;;;;;;;17.83;11.70;;;;;;;;;;4392173;32;20106;-73
2024/03/17 08:17:55;;;;;;;;;;;;;;;;;;4392314;32;20049;-74
2024/03/17 08:20:20;;;;;;;15.80;11.07;;;;;;;;;;4391453;32;19934;-74
2024/03/17 08:22:45;;;;;;;15.80;11.93;;;;;;;;;;4405674;32;20046;-75
2024/03/17 08:25:11;;;;;;;17.02;12.00;;;;;;;;;;4407241;32;20070;-75
2024/03/17 08:27:36;;;;;;;17.10;11.93;;;;;;;;;;4407224;32;20033;-75
2024/03/17 08:30:01;;;;;;;18.27;12.73;;;;;;;;;;4393374;32;20046;-75
2024/03/17 08:32:27;;;;;;;16.87;12.52;;;;;;;;;;4394838;32;20048;-74
2024/03/17 08:34:52;;;;;;;;;;;;;;;;;;4405372;32;20031;-74
2024/03/17 08:37:17;;;;;;;14.77;11.23;;;;;;;;;;4406910;32;19976;-74
2024/03/17 08:39:42;;;;;;;;;;;;;;;;;;4407828;32;20175;-76
2024/03/17 08:42:07;;;;;;;15.25;11.70;;;;;;;;;;4393071;32;19933;-74
2024/03/17 08:44:32;;;;;;;;;;;;;;;;;;4407601;32;20119;-74
2024/03/17 08:46:58;;;;;;;18.92;11.57;;;;;;;;;;4407211;32;19952;-76
2024/03/17 08:49:23;;;;;;;;;;;;;;;;;;4393342;32;20196;-74
2024/03/17 08:51:48;;;;;;;18.70;10.57;;;;;;;;;;4408299;32;19941;-75
2024/03/17 08:54:13;;;;;;;;;;;;;;;;;;4393442;32;20118;-74
2024/03/17 08:56:38;;;;;;;14.90;11.38;;;;;;;;;;4406760;32;19942;-75
2024/03/17 08:59:03;;;;;;;;;;;;;;;;;;4408129;32;20117;-74
2024/03/17 09:01:29;;;;;;;19.23;11.43;;;;;;;;;;4392456;32;19937;-75
2024/03/17 09:03:56;;;;;;;15.82;11.65;;;;;;;;;;4392745;32;20023;-75
2024/03/17 09:06:22;;;;;;;16.48;11.63;;;;;;;;;;4394317;32;20464;-75
2024/03/17 09:08:47;;;;;;;;;;;;;;;;;;4393240;32;20042;-74
2024/03/17 09:11:12;;;;;;;15.82;11.80;;;;;;;;;;4407028;32;19973;-75
2024/03/17 09:13:38;;;;;;;16.55;11.82;;;;;;;;;;4394429;32;20034;-74
2024/03/17 09:16:03;;;;;;;;;;;;;;;;;;4393347;32;20030;-74
2024/03/17 09:18:29;;;;;;;14.87;9.95;;;;;;;;;;4408091;32;19945;-74
2024/03/17 09:20:57;;;;;;;15.48;11.95;;;;;;;;;;4406324;32;20456;-74
2024/03/17 09:23:24;;;;;;;14.13;10.70;;;;;;;;;;4406508;32;20031;-74
2024/03/17 09:25:59;;;;;;;14.75;10.02;;;;;;;;;;4403594;32;20362;-75
2024/03/17 09:28:24;;;;;;;18.25;10.43;;;;;;;;;;4409497;32;20064;-75
2024/03/17 09:30:49;;;;;;;15.98;10.70;;;;;;;;;;4423047;32;20026;-74
2024/03/17 09:33:15;;;;;;;11.52;9.82;;;;;;;;;;4407475;32;20377;-76
2024/03/17 09:35:40;;;;;;;16.42;10.88;;;;;;;;;;4419376;32;20025;-74
2024/03/17 09:38:05;;;;;;;13.02;10.65;;;;;;;;;;4411539;32;20385;-74
2024/03/17 09:40:31;;;;;;;14.27;10.10;;;;;;;;;;4409253;32;20077;-75
2024/03/17 09:42:56;;;;;;;11.68;10.25;;;;;;;;;;4395255;32;20096;-75
2024/03/17 09:45:23;;;;;;;14.73;10.10;;;;;;;;;;4405828;32;20487;-76
2024/03/17 09:47:49;;;;;;;13.05;9.55;;;;;;;;;;4391852;32;20367;-76
2024/03/17 09:50:18;;;;;;;12.40;9.93;;;;;;;;;;4407124;32;20027;-73
2024/03/17 09:52:44;;;;;;;16.35;9.93;;;;;;;;;;4414462;32;20390;-75
2024/03/17 09:55:14;;;;;;;13.05;9.15;;;;;;;;;;4407494;32;20479;-74
2024/03/17 09:57:40;;;;;;;13.32;9.60;;;;;;;;;;4406798;32;20042;-74
2024/03/17 10:00:12;;;;;;;13.70;10.02;;;;;;;;;;4407165;32;20022;-74
2024/03/17 10:02:41;;;;;;;15.70;10.75;;;;;;;;;;4408669;32;20018;-75
2024/03/17 10:05:17;;;;;;;13.48;10.00;;;;;;;;;;4408091;32;20047;-75
2024/03/17 10:07:42;;;;;;;13.02;10.05;;;;;;;;;;4422116;32;20026;-75
2024/03/17 10:10:12;;;;;;;15.18;9.68;;;;;;;;;;4420480;32;20049;-76
2024/03/17 10:12:37;;;;;;;17.08;11.10;;;;;;;;;;4401120;32;20430;-74
2024/03/17 10:15:04;;;;;;;12.55;10.07;;;;;;;;;;4380408;32;20054;-75
2024/03/17 10:17:32;;;;;;;15.30;9.77;;;;;;;;;;4375355;32;20027;-74
2024/03/17 10:20:17;;;;;;;13.90;10.15;;;;;;;;;;4375655;32;20053;-74
2024/03/17 10:23:01;;;;;;;14.82;9.75;;;;;;;;;;4381974;32;20475;-74
2024/03/17 10:25:27;;;;;;;18.40;10.68;;;;;;;;;;4388492;32;20065;-75
2024/03/17 10:27:53;;;;;;;12.57;9.20;;;;;;;;;;4388939;32;20085;-75
2024/03/17 10:30:21;;;;;;;12.73;9.93;;;;;;;;;;4389000;32;20127;-75
2024/03/17 10:32:57;;;;;;;13.57;10.57;;;;;;;;;;4389287;32;20027;-74
2024/03/17 10:35:25;;;;;;;13.27;9.23;;;;;;;;;;4390223;32;20108;-76
2024/03/17 10:37:54;;;;;;;16.98;10.13;;;;;;;;;;4390046;32;20035;-74
2024/03/17 10:40:19;;;;;;;12.32;9.65;;;;;;;;;;4391814;32;20026;-74
2024/03/17 10:42:48;;;;;;;14.35;9.93;;;;;;;;;;4392288;32;20069;-74
2024/03/17 10:45:13;;;;;;;10.45;8.93;;;;;;;;;;4388881;32;20041;-75
2024/03/17 10:47:40;;;;;;;21.37;10.80;;;;;;;;;;4387427;32;20031;-76
2024/03/17 10:50:12;;;;;;;16.33;10.25;;;;;;;;;;4389611;32;20080;-75
2024/03/17 10:52:41;;;;;;;12.68;9.73;;;;;;;;;;4389086;32;20018;-74
2024/03/17 10:55:08;;;;;;;12.05;9.25;;;;;;;;;;4375788;32;20447;-75
2024/03/17 10:57:34;;;;;;;15.57;9.80;;;;;;;;;;4386354;32;20091;-75
2024/03/17 10:59:59;;;;;;;11.77;9.38;;;;;;;;;;4391058;32;20084;-75
2024/03/17 11:02:25;;;;;;;12.68;8.98;;;;;;;;;;4388296;32;20027;-75
2024/03/17 11:04:51;;;;;;;12.90;8.98;;;;;;;;;;4390074;32;20092;-75
2024/03/17 11:07:18;;;;;;;11.75;8.95;;;;;;;;;;4389783;32;20416;-75
2024/03/17 11:09:44;;;;;;;13.45;8.88;;;;;;;;;;4388645;32;20022;-75
2024/03/17 11:12:29;;;;;;;12.10;9.40;;;;;;;;;;4410803;32;20454;-75
2024/03/17 11:15:12;;;;;;;15.88;9.43;;;;;;;;;;4421453;32;20320;-74
2024/03/17 11:17:38;;;;;;;12.35;8.43;;;;;;;;;;4419083;32;20149;-75
2024/03/17 11:20:17;;;;;;;13.25;9.05;;;;;;;;;;4419738;32;20162;-75
2024/03/17 11:22:45;;;;;;;16.25;10.38;;;;;;;;;;4406701;32;20512;-74
2024/03/17 11:25:26;;;;;;;13.35;9.75;;;;;;;;;;4406343;32;20018;-74
2024/03/17 11:27:54;;;;;;;15.93;8.43;;;;;;;;;;4421152;32;20069;-75
2024/03/17 11:30:38;;;;;;;13.38;8.95;;;;;;;;;;4421222;32;20026;-76
2024/03/17 11:33:24;;;;;;;10.73;8.40;;;;;;;;;;4406922;32;20026;-75
2024/03/17 11:35:49;;;;;;;13.88;9.57;;;;;;;;;;4421284;32;20030;-74
2024/03/17 11:38:33;;;;;;;14.45;10.45;;;;;;;;;;4408313;32;20501;-75
2024/03/17 11:41:17;;;;;;;14.98;9.05;;;;;;;;;;4410259;32;20029;-75
2024/03/17 11:43:43;;;;;;;14.52;9.13;;;;;;;;;;4394706;32;20089;-74
2024/03/17 11:46:10;;;;;;;13.43;8.88;;;;;;;;;;4394733;32;20462;-74
2024/03/17 11:48:36;;;;;;;11.85;9.25;;;;;;;;;;4410054;32;20018;-75
2024/03/17 11:51:02;;;;;;;11.80;9.15;;;;;;;;;;4410006;32;20064;-73
2024/03/17 11:53:28;;;;;;;12.25;9.10;;;;;;;;;;4398981;32;20438;-75
2024/03/17 11:55:55;;;;;;;14.30;9.75;;;;;;;;;;4405696;32;20039;-75
2024/03/17 11:58:22;;;;;;;12.02;9.10;;;;;;;;;;4404071;32;20030;-75
2024/03/17 12:00:51;;;;;;;11.68;9.45;;;;;;;;;;4405584;32;20027;-75
2024/03/17 12:03:16;;;;;;;18.35;10.02;;;;;;;;;;4391836;32;20026;-75
2024/03/17 12:05:41;;;;;;;12.88;10.77;;;;;;;;;;4390667;32;20119;-75
2024/03/17 12:08:19;;;;;;;14.98;10.32;;;;;;;;;;4390259;32;20022;-76
2024/03/17 12:10:48;;;;;;;15.43;9.45;;;;;;;;;;4403605;32;20102;-76
2024/03/17 12:13:13;;;;;;;19.48;8.77;;;;;;;;;;4406153;32;20370;-75
2024/03/17 12:15:38;;;;;;;15.73;8.45;;;;;;;;;;4405622;32;20056;-74
2024/03/17 12:18:04;;;;;;;14.55;7.70;;;;;;;;;;4407005;32;20061;-75
2024/03/17 12:20:30;;;;;;;8.93;6.75;;;;;;;;;;4405012;32;20342;-75
2024/03/17 12:22:57;;;;;;;13.75;7.70;;;;;;;;;;4420468;32;20083;-74
2024/03/17 12:25:23;;;;;;;10.00;6.43;;;;;;;;;;4419283;32;20058;-76
2024/03/17 12:27:48;;;;;;;10.45;7.03;;;;;;;;;;4420510;32;20029;-75
2024/03/17 12:30:15;;;;;;;13.15;6.15;;;;;;;;;;4405332;32;20026;-75
2024/03/17 12:32:40;;;;;;;10.70;6.85;;;;;;;;;;4419374;32;20079;-75
2024/03/17 12:35:11;;;;;;;13.48;7.12;;;;;;;;;;4405305;32;20062;-76
2024/03/17 12:37:37;;;;;;;11.65;6.90;;;;;;;;;;4404777;32;20026;-75
2024/03/17 12:40:03;;;;;;;15.63;7.28;;;;;;;;;;4404555;32;20048;-75
2024/03/17 12:42:29;;;;;;;13.98;6.65;;;;;;;;;;4418751;32;20041;-77
2024/03/17 12:44:54;;;;;;;11.82;7.03;;;;;;;;;;4419890;32;20407;-75
2024/03/17 12:47:21;;;;;;;9.83;6.70;;;;;;;;;;4404919;32;20329;-76
2024/03/17 12:49:46;;;;;;;12.30;6.40;;;;;;;;;;4405545;32;20121;-76
2024/03/17 12:52:21;;;;;;;12.52;7.20;;;;;;;;;;4421034;32;20422;-75
2024/03/17 13:00:34;;;;;;;12.37;6.68;;;;;;;;;;4408523;32;20452;-74
2024/03/17 13:03:03;;;;;;;14.00;6.65;;;;;;;;;;4419061;32;20030;-76
2024/03/17 13:05:28;;;;;;;7.78;6.18;;;;;;;;;;4402072;32;20023;-75
2024/03/17 13:07:57;;;;;;;15.85;6.03;;;;;;;;;;4403414;32;20052;-76
2024/03/17 13:10:23;;;;;;;13.45;6.22;;;;;;;;;;4404266;32;20095;-75
2024/03/17 13:12:57;;;;;;;11.98;6.32;;;;;;;;;;4392358;32;20491;-75
2024/03/17 13:15:22;;;;;;;10.93;5.78;;;;;;;;;;4407216;32;20054;-77
2024/03/17 13:17:48;;;;;;;12.73;6.18;;;;;;;;;;4393626;32;20053;-76
2024/03/17 13:20:15;;;;;;;11.12;5.65;;;;;;;;;;4406266;32;20023;-76
2024/03/17 13:22:41;;;;;;;10.30;5.22;;;;;;;;;;4406216;32;20065;-76
2024/03/17 13:25:35;;;;;;;8.90;4.20;;;;;;;;;;4406497;32;20415;-77
2024/03/17 13:28:00;;;;;;;12.43;5.20;;;;;;;;;;4403812;32;20057;-77
2024/03/17 13:30:28;;;;;;;7.55;4.68;;;;;;;;;;4392603;32;20037;-77
2024/03/17 13:32:59;;;;;;;11.27;5.93;;;;;;;;;;4393453;32;20061;-76
2024/03/17 13:35:26;;;;;;;12.75;5.70;;;;;;;;;;4394251;32;20023;-76
2024/03/17 13:37:51;;;;;;;10.32;5.72;;;;;;;;;;4394037;32;20046;-76
2024/03/17 13:40:20;;;;;;;13.45;5.62;;;;;;;;;;4396262;32;20151;-77
2024/03/17 13:42:47;;;;;;;13.40;6.10;;;;;;;;;;4421589;32;20384;-76
2024/03/17 13:45:12;;;;;;;8.95;5.53;;;;;;;;;;4421246;32;20065;-76
2024/03/17 13:47:38;;;;;;;12.25;5.53;;;;;;;;;;4421828;32;20382;-77
2024/03/17 13:50:06;;;;;;;14.73;8.00;;;;;;;;;;4407522;32;20064;-76
2024/03/17 13:52:32;;;;;;;8.02;5.37;;;;;;;;;;4407262;32;20034;-75
2024/03/17 13:54:57;;;;;;;13.20;5.87;;;;;;;;;;4423139;32;20160;-76
2024/03/17 13:57:25;;;;;;;13.57;5.65;;;;;;;;;;4426128;32;20022;-75
2024/03/17 13:59:51;;;;;;;9.90;4.93;;;;;;;;;;4424233;32;20038;-76
2024/03/17 14:02:17;;;;;;;10.05;5.25;;;;;;;;;;4415845;32;20030;-75
2024/03/17 14:04:42;;;;;;;10.27;5.70;;;;;;;;;;4398792;32;20399;-77
2024/03/17 14:07:07;;;;;;;11.57;5.90;;;;;;;;;;4398391;32;20034;-77
2024/03/17 14:09:33;;;;;;;13.07;6.03;;;;;;;;;;4405853;32;20023;-77
2024/03/17 14:11:58;;;;;;;12.32;6.07;;;;;;;;;;4391771;32;20061;-77
2024/03/17 14:14:23;;;;;;;11.68;6.00;;;;;;;;;;4409379;32;20018;-76
2024/03/17 14:16:48;;;;;;;8.27;5.68;;;;;;;;;;4422992;32;20041;-78
2024/03/17 14:19:14;;;;;;;8.25;4.62;;;;;;;;;;4408038;32;20136;-77
2024/03/17 14:21:39;;;;;;;13.82;5.75;;;;;;;;;;4421205;32;20023;-76
2024/03/17 14:24:06;;;;;;;15.98;5.55;;;;;;;;;;4421278;32;20448;-77
2024/03/17 14:26:32;;;;;;;9.10;4.65;;;;;;;;;;4406974;32;20099;-76
2024/03/17 14:28:59;;;;;;;9.38;5.05;;;;;;;;;;4422383;32;20396;-77
2024/03/17 14:31:24;;;;;;;11.73;5.72;;;;;;;;;;4407450;32;20101;-77
2024/03/17 14:33:50;;;;;;;12.32;5.82;;;;;;;;;;4407852;32;20357;-76
2024/03/17 14:36:15;;;;;;;13.40;5.62;;;;;;;;;;4407071;32;20454;-75
2024/03/17 14:38:40;;;;;;;8.10;5.45;;;;;;;;;;4422042;32;20045;-76
2024/03/17 14:41:05;;;;;;;13.13;6.35;;;;;;;;;;4421208;32;20336;-78
2024/03/17 14:43:31;;;;;;;14.43;6.00;;;;;;;;;;4421749;32;20084;-76
2024/03/17 14:45:57;;;;;;;12.40;5.25;;;;;;;;;;4408453;32;20026;-76
2024/03/17 14:48:22;;;;;;;9.60;5.72;;;;;;;;;;4408581;32;20060;-76